createdAt,value
2017-09-20T00:00:37.034Z,13.9
2017-09-20T00:01:37.810Z,14.0
2017-09-20T00:02:38.857Z,14.0
2017-09-20T00:03:39.780Z,13.9
2017-09-20T00:04:40.929Z,13.9
2017-09-20T00:05:43.245Z,13.9
2017-09-20T00:06:43.817Z,13.8
2017-09-20T00:07:44.855Z,13.8
2017-09-20T00:08:45.598Z,13.8
2017-09-20T00:09:46.526Z,13.9
2017-09-20T00:10:47.424Z,13.9
2017-09-20T00:11:48.299Z,14.0
2017-09-20T00:12:49.204Z,14.0
2017-09-20T00:13:50.057Z,13.9
2017-09-20T00:14:51.158Z,13.8
2017-09-20T00:15:52.209Z,13.8
2017-09-20T00:16:53.316Z,14.0
2017-09-20T00:17:54.073Z,14.0
2017-09-20T00:18:54.887Z,13.9
2017-09-20T00:19:56.043Z,14.0
2017-09-20T00:20:56.782Z,13.9
2017-09-20T00:21:57.588Z,13.9
2017-09-20T00:22:58.387Z,14.0
2017-09-20T00:23:59.193Z,14.0
2017-09-20T00:24:59.927Z,13.9
2017-09-20T00:26:00.751Z,14.1
2017-09-20T00:27:01.458Z,14.0
2017-09-20T00:28:02.247Z,13.9
2017-09-20T00:29:02.967Z,14.0
2017-09-20T00:30:03.715Z,14.0
2017-09-20T00:31:04.545Z,13.9
2017-09-20T00:32:05.357Z,13.9
2017-09-20T00:33:06.194Z,14.0
2017-09-20T00:34:07.160Z,13.8
2017-09-20T00:35:07.917Z,13.9
2017-09-20T00:36:08.692Z,13.9
2017-09-20T00:37:09.533Z,13.8
2017-09-20T00:38:10.264Z,13.8
2017-09-20T00:39:11.079Z,13.8
2017-09-20T00:40:11.897Z,13.8
2017-09-20T00:41:12.625Z,13.9
2017-09-20T00:42:13.354Z,13.7
2017-09-20T00:43:14.182Z,13.8
2017-09-20T00:44:15.290Z,13.8
2017-09-20T00:45:16.579Z,13.7
2017-09-20T00:46:17.453Z,13.8
2017-09-20T00:47:18.231Z,13.8
2017-09-20T00:48:19.022Z,13.8
2017-09-20T00:49:20.732Z,13.8
2017-09-20T00:50:21.507Z,13.8
2017-09-20T00:51:22.326Z,13.7
2017-09-20T00:52:23.082Z,13.8
2017-09-20T00:53:24.118Z,13.7
2017-09-20T00:54:24.982Z,13.7
2017-09-20T00:55:25.794Z,13.7
2017-09-20T00:56:26.566Z,13.8
2017-09-20T00:57:27.294Z,13.6
2017-09-20T00:58:28.252Z,13.6
2017-09-20T00:59:29.061Z,13.6
2017-09-20T01:00:30.016Z,13.7
2017-09-20T01:01:30.829Z,13.6
2017-09-20T01:02:31.625Z,13.7
2017-09-20T01:03:32.336Z,13.6
2017-09-20T01:04:33.149Z,13.7
2017-09-20T01:05:34.044Z,13.6
2017-09-20T01:06:34.901Z,13.6
2017-09-20T01:07:35.668Z,13.6
2017-09-20T01:08:36.481Z,13.6
2017-09-20T01:09:37.298Z,13.7
2017-09-20T01:10:38.133Z,13.6
2017-09-20T01:11:38.851Z,13.6
2017-09-20T01:12:39.906Z,13.6
2017-09-20T01:13:40.652Z,13.6
2017-09-20T01:14:41.409Z,13.6
2017-09-20T01:15:42.165Z,13.6
2017-09-20T01:16:42.870Z,13.5
2017-09-20T01:17:43.802Z,13.4
2017-09-20T01:18:44.649Z,13.5
2017-09-20T01:19:45.658Z,13.3
2017-09-20T01:20:46.516Z,13.3
2017-09-20T01:21:47.319Z,13.4
2017-09-20T01:22:48.155Z,13.3
2017-09-20T01:23:48.912Z,13.4
2017-09-20T01:24:49.807Z,13.5
2017-09-20T01:25:50.607Z,13.2
2017-09-20T01:26:51.419Z,13.2
2017-09-20T01:27:52.221Z,13.2
2017-09-20T01:28:53.170Z,13.2
2017-09-20T01:29:53.988Z,13.2
2017-09-20T01:30:54.759Z,13.1
2017-09-20T01:31:55.633Z,13.1
2017-09-20T01:32:56.601Z,13.0
2017-09-20T01:33:57.719Z,13.1
2017-09-20T01:34:58.533Z,13.0
2017-09-20T01:35:59.376Z,13.0
2017-09-20T01:37:00.205Z,12.9
2017-09-20T01:38:00.888Z,12.9
2017-09-20T01:39:02.037Z,12.8
2017-09-20T01:40:02.803Z,12.8
2017-09-20T01:41:03.628Z,12.9
2017-09-20T01:42:04.339Z,12.8
2017-09-20T01:43:05.079Z,12.7
2017-09-20T01:44:05.826Z,12.8
2017-09-20T01:45:06.621Z,12.7
2017-09-20T01:46:07.361Z,12.7
2017-09-20T01:47:08.097Z,12.8
2017-09-20T01:48:08.980Z,12.7
2017-09-20T01:49:09.704Z,12.8
2017-09-20T01:50:10.519Z,12.8
2017-09-20T01:51:11.289Z,12.7
2017-09-20T01:52:11.997Z,12.7
2017-09-20T01:53:12.781Z,12.7
2017-09-20T01:54:13.571Z,12.7
2017-09-20T01:55:14.599Z,12.8
2017-09-20T01:56:15.698Z,12.8
2017-09-20T01:57:16.552Z,12.7
2017-09-20T01:58:17.424Z,12.7
2017-09-20T01:59:18.172Z,12.8
2017-09-20T02:00:19.123Z,12.6
2017-09-20T02:01:19.890Z,12.6
2017-09-20T02:02:20.677Z,12.5
2017-09-20T02:03:21.419Z,12.6
2017-09-20T02:04:22.255Z,12.4
2017-09-20T02:05:23.562Z,12.3
2017-09-20T02:06:24.306Z,12.5
2017-09-20T02:07:25.002Z,12.5
2017-09-20T02:08:25.885Z,12.4
2017-09-20T02:09:26.716Z,12.4
2017-09-20T02:10:27.505Z,12.3
2017-09-20T02:11:28.304Z,12.4
2017-09-20T02:12:29.113Z,12.3
2017-09-20T02:13:29.803Z,12.2
2017-09-20T02:14:30.566Z,12.3
2017-09-20T02:15:31.425Z,12.3
2017-09-20T02:16:32.093Z,12.2
2017-09-20T02:17:32.876Z,12.3
2017-09-20T02:18:33.648Z,12.2
2017-09-20T02:19:34.474Z,12.2
2017-09-20T02:20:35.255Z,12.2
2017-09-20T02:21:35.984Z,12.3
2017-09-20T02:22:36.807Z,12.2
2017-09-20T02:23:37.537Z,12.3
2017-09-20T02:24:38.343Z,12.4
2017-09-20T02:25:39.459Z,12.3
2017-09-20T02:26:40.226Z,12.4
2017-09-20T02:27:41.459Z,12.3
2017-09-20T02:28:42.216Z,12.3
2017-09-20T02:29:43.184Z,12.2
2017-09-20T02:30:43.948Z,12.4
2017-09-20T02:31:44.807Z,12.3
2017-09-20T02:32:45.606Z,12.3
2017-09-20T02:33:46.342Z,12.3
2017-09-20T02:34:47.297Z,12.3
2017-09-20T02:35:48.135Z,12.3
2017-09-20T02:36:48.981Z,12.3
2017-09-20T02:37:49.817Z,12.3
2017-09-20T02:38:50.573Z,12.3
2017-09-20T02:39:51.612Z,12.4
2017-09-20T02:40:52.360Z,12.4
2017-09-20T02:41:53.123Z,12.3
2017-09-20T02:42:53.889Z,12.2
2017-09-20T02:43:54.761Z,12.4
2017-09-20T02:44:55.582Z,12.3
2017-09-20T02:45:56.284Z,12.3
2017-09-20T02:46:57.206Z,12.3
2017-09-20T02:47:58.030Z,12.2
2017-09-20T02:48:58.768Z,12.1
2017-09-20T02:49:59.664Z,12.1
2017-09-20T02:51:00.456Z,12.0
2017-09-20T02:52:01.183Z,12.0
2017-09-20T02:53:01.957Z,12.1
2017-09-20T02:54:02.617Z,12.1
2017-09-20T02:55:03.356Z,12.1
2017-09-20T02:56:04.162Z,12.0
2017-09-20T02:57:05.002Z,12.0
2017-09-20T02:58:05.750Z,12.0
2017-09-20T02:59:06.527Z,12.0
2017-09-20T03:00:07.451Z,12.0
2017-09-20T03:01:08.238Z,11.9
2017-09-20T03:02:09.027Z,12.0
2017-09-20T03:03:10.026Z,12.0
2017-09-20T03:04:10.738Z,12.1
2017-09-20T03:05:11.525Z,12.0
2017-09-20T03:07:27.795Z,12.1
2017-09-20T03:08:28.615Z,12.1
2017-09-20T03:09:29.375Z,12.0
2017-09-20T03:10:30.191Z,12.1
2017-09-20T03:11:30.955Z,11.9
2017-09-20T03:12:31.784Z,12.1
2017-09-20T03:13:32.451Z,12.1
2017-09-20T03:14:33.233Z,12.0
2017-09-20T03:15:34.020Z,12.1
2017-09-20T03:16:34.734Z,12.1
2017-09-20T03:17:35.576Z,12.1
2017-09-20T03:18:36.679Z,12.0
2017-09-20T03:19:37.521Z,12.1
2017-09-20T03:20:38.410Z,12.1
2017-09-20T03:21:39.176Z,12.1
2017-09-20T03:22:40.310Z,12.0
2017-09-20T03:23:41.140Z,12.0
2017-09-20T03:24:41.931Z,12.0
2017-09-20T03:25:42.916Z,11.9
2017-09-20T03:26:43.688Z,12.0
2017-09-20T03:27:44.426Z,12.0
2017-09-20T03:28:45.269Z,12.1
2017-09-20T03:29:46.161Z,11.9
2017-09-20T03:30:46.951Z,12.0
2017-09-20T03:31:47.914Z,11.9
2017-09-20T03:32:48.618Z,12.0
2017-09-20T03:33:49.358Z,12.1
2017-09-20T03:34:50.130Z,12.1
2017-09-20T03:35:50.928Z,12.1
2017-09-20T03:36:51.740Z,12.1
2017-09-20T03:37:52.504Z,12.0
2017-09-20T03:38:53.285Z,11.9
2017-09-20T03:39:54.058Z,11.9
2017-09-20T03:40:54.927Z,11.9
2017-09-20T03:41:55.660Z,12.1
2017-09-20T03:42:56.486Z,12.0
2017-09-20T03:43:57.345Z,12.0
2017-09-20T03:44:58.215Z,11.9
2017-09-20T03:45:59.068Z,12.0
2017-09-20T03:46:59.953Z,12.0
2017-09-20T03:48:00.823Z,11.9
2017-09-20T03:49:01.760Z,12.0
2017-09-20T03:50:02.540Z,12.0
2017-09-20T03:51:03.319Z,11.9
2017-09-20T03:52:04.187Z,11.8
2017-09-20T03:53:04.910Z,11.9
2017-09-20T03:54:05.777Z,11.9
2017-09-20T03:55:06.609Z,12.0
2017-09-20T03:56:07.470Z,12.0
2017-09-20T03:57:08.299Z,11.9
2017-09-20T03:58:09.086Z,11.9
2017-09-20T03:59:09.905Z,11.8
2017-09-20T04:00:11.023Z,12.0
2017-09-20T04:01:11.759Z,11.9
2017-09-20T04:02:12.544Z,11.8
2017-09-20T04:03:13.289Z,11.9
2017-09-20T04:04:14.064Z,11.9
2017-09-20T04:05:14.887Z,11.9
2017-09-20T04:06:15.716Z,11.9
2017-09-20T04:07:16.855Z,11.9
2017-09-20T04:08:17.594Z,11.8
2017-09-20T04:09:18.322Z,11.8
2017-09-20T04:10:19.104Z,11.8
2017-09-20T04:11:20.075Z,11.8
2017-09-20T04:12:20.817Z,11.9
2017-09-20T04:13:21.570Z,11.9
2017-09-20T04:14:22.429Z,12.0
2017-09-20T04:15:23.376Z,12.1
2017-09-20T04:16:24.127Z,12.2
2017-09-20T04:17:25.071Z,12.2
2017-09-20T04:18:26.030Z,12.2
2017-09-20T04:19:26.788Z,12.2
2017-09-20T04:20:27.587Z,12.1
2017-09-20T04:21:28.652Z,12.2
2017-09-20T04:23:30.907Z,12.2
2017-09-20T04:24:31.680Z,12.2
2017-09-20T04:25:32.819Z,12.1
2017-09-20T04:26:33.668Z,12.2
2017-09-20T04:27:34.516Z,12.1
2017-09-20T04:28:35.242Z,12.2
2017-09-20T04:29:36.039Z,12.2
2017-09-20T04:30:36.777Z,12.1
2017-09-20T04:31:37.613Z,12.1
2017-09-20T04:32:38.614Z,12.0
2017-09-20T04:33:39.451Z,12.0
2017-09-20T04:34:40.171Z,11.9
2017-09-20T04:35:40.951Z,11.9
2017-09-20T04:36:41.675Z,11.9
2017-09-20T04:37:42.624Z,11.8
2017-09-20T04:38:43.911Z,11.8
2017-09-20T04:39:44.682Z,11.9
2017-09-20T04:40:45.511Z,11.9
2017-09-20T04:41:46.378Z,11.8
2017-09-20T04:42:47.149Z,11.8
2017-09-20T04:43:48.022Z,11.9
2017-09-20T04:44:48.846Z,11.9
2017-09-20T04:45:49.971Z,11.9
2017-09-20T04:46:50.831Z,11.9
2017-09-20T04:47:51.957Z,11.9
2017-09-20T04:48:52.712Z,11.9
2017-09-20T04:49:53.498Z,11.9
2017-09-20T04:50:54.312Z,11.8
2017-09-20T04:51:55.075Z,11.9
2017-09-20T04:52:55.833Z,11.9
2017-09-20T04:53:56.643Z,11.8
2017-09-20T04:54:57.409Z,11.9
2017-09-20T04:55:58.465Z,11.9
2017-09-20T04:57:00.697Z,11.8
2017-09-20T04:58:01.631Z,11.9
2017-09-20T04:59:02.385Z,12.0
2017-09-20T05:00:03.197Z,12.0
2017-09-20T05:01:04.352Z,11.9
2017-09-20T05:02:05.300Z,12.0
2017-09-20T05:03:06.054Z,11.9
2017-09-20T05:04:06.987Z,12.0
2017-09-20T05:05:07.770Z,11.9
2017-09-20T05:06:08.508Z,11.9
2017-09-20T05:07:09.308Z,11.9
2017-09-20T05:08:10.008Z,12.0
2017-09-20T05:09:10.837Z,12.1
2017-09-20T05:10:11.602Z,12.0
2017-09-20T05:11:12.372Z,12.1
2017-09-20T05:12:13.207Z,12.1
2017-09-20T05:13:14.008Z,12.2
2017-09-20T05:14:14.920Z,12.2
2017-09-20T05:15:16.219Z,12.3
2017-09-20T05:16:17.112Z,12.2
2017-09-20T05:17:17.976Z,12.2
2017-09-20T05:18:19.035Z,12.2
2017-09-20T05:19:19.865Z,12.2
2017-09-20T05:20:20.659Z,12.2
2017-09-20T05:21:21.558Z,12.2
2017-09-20T05:22:22.347Z,12.2
2017-09-20T05:23:23.362Z,12.2
2017-09-20T05:24:24.310Z,12.2
2017-09-20T05:25:24.989Z,12.2
2017-09-20T05:26:25.955Z,12.1
2017-09-20T05:27:27.069Z,12.1
2017-09-20T05:28:28.211Z,12.1
2017-09-20T05:29:29.215Z,12.0
2017-09-20T05:30:30.424Z,12.2
2017-09-20T05:31:31.240Z,12.1
2017-09-20T05:32:32.037Z,12.2
2017-09-20T05:33:32.934Z,12.1
2017-09-20T05:34:34.003Z,12.2
2017-09-20T05:35:34.994Z,12.2
2017-09-20T05:36:36.051Z,12.1
2017-09-20T05:37:36.784Z,12.2
2017-09-20T05:38:37.530Z,12.2
2017-09-20T05:39:38.400Z,12.2
2017-09-20T05:40:39.150Z,12.2
2017-09-20T05:41:39.953Z,12.2
2017-09-20T05:42:40.801Z,12.4
2017-09-20T05:43:41.698Z,12.3
2017-09-20T05:44:42.396Z,12.3
2017-09-20T05:45:43.210Z,12.3
2017-09-20T05:46:44.158Z,12.5
2017-09-20T05:47:44.911Z,12.5
2017-09-20T05:48:45.722Z,12.5
2017-09-20T05:49:47.031Z,12.6
2017-09-20T05:50:48.310Z,12.5
2017-09-20T05:51:49.065Z,12.4
2017-09-20T05:52:49.931Z,12.4
2017-09-20T05:53:51.084Z,12.4
2017-09-20T05:54:51.964Z,12.5
2017-09-20T05:55:52.779Z,12.5
2017-09-20T05:56:53.498Z,12.6
2017-09-20T05:57:54.434Z,12.5
2017-09-20T05:58:55.192Z,12.6
2017-09-20T05:59:55.987Z,12.6
2017-09-20T06:00:57.419Z,12.7
2017-09-20T06:01:58.128Z,12.7
2017-09-20T06:02:59.370Z,12.8
2017-09-20T06:04:07.085Z,12.8
2017-09-20T06:05:07.930Z,12.8
2017-09-20T06:06:08.722Z,12.8
2017-09-20T06:07:09.861Z,12.7
2017-09-20T06:08:10.780Z,12.8
2017-09-20T06:09:11.697Z,12.9
2017-09-20T06:10:12.446Z,12.8
2017-09-20T06:11:13.202Z,12.9
2017-09-20T06:12:14.059Z,12.9
2017-09-20T06:13:14.778Z,12.7
2017-09-20T06:14:15.497Z,12.8
2017-09-20T06:15:16.330Z,12.7
2017-09-20T06:16:17.054Z,12.8
2017-09-20T06:17:17.878Z,12.8
2017-09-20T06:18:18.794Z,12.8
2017-09-20T06:19:19.547Z,12.6
2017-09-20T06:20:20.247Z,12.7
2017-09-20T06:21:21.029Z,12.7
2017-09-20T06:22:21.792Z,12.5
2017-09-20T06:23:22.565Z,12.6
2017-09-20T06:24:23.360Z,12.6
2017-09-20T06:25:24.118Z,12.7
2017-09-20T06:26:24.915Z,12.7
2017-09-20T06:27:25.711Z,12.6
2017-09-20T06:28:26.484Z,12.8
2017-09-20T06:29:27.236Z,12.8
2017-09-20T06:30:27.944Z,12.8
2017-09-20T06:31:28.647Z,12.8
2017-09-20T06:32:29.413Z,12.6
2017-09-20T06:33:30.192Z,12.6
2017-09-20T06:34:30.911Z,12.7
2017-09-20T06:35:31.686Z,12.7
2017-09-20T06:36:32.428Z,12.8
2017-09-20T06:37:33.152Z,12.8
2017-09-20T06:38:34.131Z,12.8
2017-09-20T06:39:34.849Z,12.9
2017-09-20T06:40:35.621Z,12.9
2017-09-20T06:41:36.524Z,12.9
2017-09-20T06:42:37.369Z,12.9
2017-09-20T06:43:38.114Z,12.7
2017-09-20T06:44:38.847Z,12.7
2017-09-20T06:45:40.222Z,12.7
2017-09-20T06:46:40.982Z,12.8
2017-09-20T06:47:41.656Z,12.8
2017-09-20T06:48:42.379Z,12.9
2017-09-20T06:49:43.180Z,12.9
2017-09-20T06:50:44.152Z,12.9
2017-09-20T06:51:44.956Z,12.9
2017-09-20T06:52:45.685Z,12.8
2017-09-20T06:53:46.644Z,12.9
2017-09-20T06:54:47.434Z,12.9
2017-09-20T06:55:48.160Z,12.8
2017-09-20T06:56:48.872Z,12.8
2017-09-20T06:57:49.814Z,12.8
2017-09-20T06:58:50.538Z,12.8
2017-09-20T06:59:51.313Z,12.6
2017-09-20T07:00:52.084Z,12.7
2017-09-20T07:01:52.832Z,12.8
2017-09-20T07:02:53.608Z,12.7
2017-09-20T07:03:54.392Z,12.6
2017-09-20T07:04:55.327Z,12.5
2017-09-20T07:05:56.049Z,12.6
2017-09-20T07:06:57.160Z,12.8
2017-09-20T07:07:57.908Z,12.8
2017-09-20T07:08:58.703Z,12.8
2017-09-20T07:09:59.508Z,13.0
2017-09-20T07:11:00.245Z,13.1
2017-09-20T07:12:01.280Z,13.1
2017-09-20T07:13:02.084Z,13.0
2017-09-20T07:14:02.853Z,13.1
2017-09-20T07:15:03.858Z,13.0
2017-09-20T07:16:04.733Z,13.0
2017-09-20T07:17:05.578Z,13.0
2017-09-20T07:18:06.287Z,13.0
2017-09-20T07:19:06.987Z,12.9
2017-09-20T07:20:07.802Z,12.9
2017-09-20T07:21:08.601Z,13.1
2017-09-20T07:22:09.311Z,13.1
2017-09-20T07:23:10.142Z,13.2
2017-09-20T07:24:10.853Z,13.2
2017-09-20T07:25:11.609Z,13.4
2017-09-20T07:26:12.608Z,13.4
2017-09-20T07:27:13.421Z,13.5
2017-09-20T07:28:14.122Z,13.3
2017-09-20T07:29:15.042Z,13.1
2017-09-20T07:30:15.903Z,13.1
2017-09-20T07:31:16.748Z,13.0
2017-09-20T07:32:17.497Z,12.9
2017-09-20T07:33:18.418Z,13.0
2017-09-20T07:34:19.175Z,13.1
2017-09-20T07:35:20.009Z,13.0
2017-09-20T07:36:20.742Z,12.9
2017-09-20T07:37:21.645Z,13.0
2017-09-20T07:38:22.437Z,13.2
2017-09-20T07:39:23.140Z,13.2
2017-09-20T07:40:24.056Z,13.3
2017-09-20T07:41:24.788Z,13.3
2017-09-20T07:42:25.545Z,13.5
2017-09-20T07:43:26.318Z,13.6
2017-09-20T07:44:27.093Z,13.6
2017-09-20T07:45:28.110Z,13.7
2017-09-20T07:46:28.941Z,13.8
2017-09-20T07:47:29.716Z,13.7
2017-09-20T07:48:30.606Z,13.8
2017-09-20T07:49:31.312Z,13.6
2017-09-20T07:50:32.097Z,13.6
2017-09-20T07:51:32.808Z,13.6
2017-09-20T07:52:33.546Z,13.5
2017-09-20T07:53:34.369Z,13.5
2017-09-20T07:54:35.088Z,13.6
2017-09-20T07:55:35.827Z,13.5
2017-09-20T07:56:36.738Z,13.5
2017-09-20T07:57:37.559Z,13.5
2017-09-20T07:58:38.452Z,13.5
2017-09-20T07:59:39.242Z,13.5
2017-09-20T08:00:40.067Z,13.5
2017-09-20T08:01:40.873Z,13.5
2017-09-20T08:02:41.628Z,13.5
2017-09-20T08:03:42.460Z,13.6
2017-09-20T08:04:43.243Z,13.6
2017-09-20T08:07:00.160Z,13.6
2017-09-20T08:08:00.997Z,13.7
2017-09-20T08:09:01.883Z,13.6
2017-09-20T08:10:02.652Z,13.8
2017-09-20T08:11:03.413Z,13.8
2017-09-20T08:12:04.441Z,13.9
2017-09-20T08:13:05.176Z,13.9
2017-09-20T08:14:06.054Z,14.2
2017-09-20T08:15:06.917Z,14.2
2017-09-20T08:16:07.803Z,14.3
2017-09-20T08:17:08.646Z,14.3
2017-09-20T08:18:09.384Z,14.2
2017-09-20T08:19:10.154Z,14.2
2017-09-20T08:20:10.974Z,14.1
2017-09-20T08:21:11.930Z,14.1
2017-09-20T08:22:12.764Z,14.1
2017-09-20T08:23:13.462Z,14.1
2017-09-20T08:24:14.256Z,14.1
2017-09-20T08:25:15.076Z,14.1
2017-09-20T08:26:15.790Z,14.2
2017-09-20T08:27:16.527Z,14.4
2017-09-20T08:28:17.289Z,14.4
2017-09-20T08:29:18.059Z,14.5
2017-09-20T08:30:18.917Z,14.5
2017-09-20T08:31:19.683Z,14.5
2017-09-20T08:32:20.413Z,14.4
2017-09-20T08:33:21.234Z,14.6
2017-09-20T08:34:21.960Z,14.7
2017-09-20T08:35:22.782Z,14.8
2017-09-20T08:36:23.505Z,14.9
2017-09-20T08:37:24.258Z,14.9
2017-09-20T08:38:25.459Z,15.0
2017-09-20T08:39:26.132Z,14.8
2017-09-20T08:40:27.017Z,14.9
2017-09-20T08:41:28.099Z,15.0
2017-09-20T08:42:28.976Z,15.0
2017-09-20T08:43:29.705Z,15.0
2017-09-20T08:44:30.432Z,15.0
2017-09-20T08:45:31.163Z,14.9
2017-09-20T08:46:31.916Z,15.0
2017-09-20T08:47:32.725Z,15.1
2017-09-20T08:48:33.554Z,15.2
2017-09-20T08:49:34.282Z,15.3
2017-09-20T08:50:35.048Z,15.3
2017-09-20T08:51:36.499Z,15.5
2017-09-20T08:52:37.233Z,15.5
2017-09-20T08:53:37.958Z,15.6
2017-09-20T08:54:38.770Z,15.6
2017-09-20T08:55:39.505Z,15.6
2017-09-20T08:56:40.333Z,15.7
2017-09-20T08:57:41.019Z,15.8
2017-09-20T08:58:41.835Z,15.9
2017-09-20T08:59:42.662Z,15.6
2017-09-20T09:00:43.637Z,15.7
2017-09-20T09:01:44.329Z,15.6
2017-09-20T09:02:45.107Z,15.6
2017-09-20T09:03:45.825Z,15.5
2017-09-20T09:04:46.629Z,15.5
2017-09-20T09:05:47.360Z,15.5
2017-09-20T09:06:48.016Z,15.3
2017-09-20T09:07:48.846Z,15.3
2017-09-20T09:08:49.759Z,15.4
2017-09-20T09:09:50.781Z,15.6
2017-09-20T09:10:51.705Z,15.7
2017-09-20T09:11:52.493Z,15.8
2017-09-20T09:12:53.199Z,15.7
2017-09-20T09:13:53.985Z,15.7
2017-09-20T09:14:54.709Z,15.8
2017-09-20T09:15:55.627Z,15.9
2017-09-20T09:16:56.333Z,16.1
2017-09-20T09:17:57.077Z,16.1
2017-09-20T09:18:58.041Z,16.2
2017-09-20T09:19:58.829Z,16.3
2017-09-20T09:20:59.946Z,16.2
2017-09-20T09:22:00.756Z,16.2
2017-09-20T09:23:01.501Z,16.2
2017-09-20T09:24:02.236Z,16.3
2017-09-20T09:25:02.968Z,16.4
2017-09-20T09:26:03.812Z,16.4
2017-09-20T09:27:04.561Z,16.5
2017-09-20T09:28:05.240Z,16.6
2017-09-20T09:29:06.025Z,16.7
2017-09-20T09:30:06.847Z,16.7
2017-09-20T09:31:07.786Z,16.9
2017-09-20T09:32:09.147Z,17.1
2017-09-20T09:33:09.834Z,17.2
2017-09-20T09:34:10.706Z,17.1
2017-09-20T09:36:26.976Z,17.2
2017-09-20T09:37:28.099Z,17.3
2017-09-20T09:38:28.802Z,17.2
2017-09-20T09:39:29.587Z,17.1
2017-09-20T09:40:30.323Z,17.0
2017-09-20T09:41:31.279Z,16.9
2017-09-20T09:42:32.108Z,16.8
2017-09-20T09:43:32.835Z,16.9
2017-09-20T09:44:33.542Z,16.6
2017-09-20T09:45:34.588Z,16.6
2017-09-20T09:46:35.397Z,16.7
2017-09-20T09:47:36.181Z,16.7
2017-09-20T09:48:36.874Z,16.7
2017-09-20T09:49:37.651Z,16.5
2017-09-20T09:50:38.429Z,16.4
2017-09-20T09:51:39.134Z,16.6
2017-09-20T09:52:39.936Z,16.7
2017-09-20T09:53:40.630Z,16.8
2017-09-20T09:54:41.413Z,16.8
2017-09-20T09:55:42.197Z,16.8
2017-09-20T09:56:43.002Z,16.7
2017-09-20T09:57:43.776Z,16.7
2017-09-20T09:58:44.623Z,16.9
2017-09-20T09:59:45.627Z,16.9
2017-09-20T10:00:46.507Z,16.9
2017-09-20T10:01:47.179Z,17.1
2017-09-20T10:02:47.949Z,17.1
2017-09-20T10:03:48.704Z,17.1
2017-09-20T10:04:49.444Z,17.2
2017-09-20T10:05:50.204Z,17.4
2017-09-20T10:06:51.046Z,17.4
2017-09-20T10:07:52.198Z,17.3
2017-09-20T10:08:52.927Z,17.5
2017-09-20T10:09:53.710Z,17.4
2017-09-20T10:10:54.437Z,17.4
2017-09-20T10:11:55.241Z,17.5
2017-09-20T10:12:55.999Z,17.6
2017-09-20T10:13:56.741Z,17.8
2017-09-20T10:14:57.546Z,17.8
2017-09-20T10:15:58.370Z,18.0
2017-09-20T10:16:59.409Z,18.0
2017-09-20T10:18:00.172Z,18.1
2017-09-20T10:19:01.655Z,18.2
2017-09-20T10:20:02.434Z,18.0
2017-09-20T10:21:03.287Z,18.0
2017-09-20T10:22:03.988Z,18.3
2017-09-20T10:23:04.756Z,18.5
2017-09-20T10:24:05.564Z,18.4
2017-09-20T10:25:06.355Z,18.3
2017-09-20T10:26:07.111Z,18.3
2017-09-20T10:27:07.807Z,18.2
2017-09-20T10:28:08.604Z,18.3
2017-09-20T10:29:09.348Z,18.0
2017-09-20T10:30:10.140Z,18.2
2017-09-20T10:31:10.898Z,18.3
2017-09-20T10:32:11.682Z,18.6
2017-09-20T10:33:12.439Z,18.6
2017-09-20T10:34:13.184Z,18.6
2017-09-20T10:35:13.940Z,18.7
2017-09-20T10:36:14.776Z,18.7
2017-09-20T10:37:15.572Z,18.7
2017-09-20T10:38:16.396Z,18.8
2017-09-20T10:39:17.079Z,18.8
2017-09-20T10:40:18.004Z,18.6
2017-09-20T10:41:18.679Z,18.7
2017-09-20T10:42:19.494Z,18.8
2017-09-20T10:43:20.229Z,18.8
2017-09-20T10:44:21.071Z,18.8
2017-09-20T10:45:21.900Z,18.7
2017-09-20T10:46:22.567Z,18.5
2017-09-20T10:47:23.391Z,18.5
2017-09-20T10:48:24.149Z,18.7
2017-09-20T10:49:24.915Z,18.7
2017-09-20T10:50:25.701Z,18.8
2017-09-20T10:51:26.447Z,18.9
2017-09-20T10:52:27.098Z,19.1
2017-09-20T10:53:27.855Z,19.1
2017-09-20T10:54:28.591Z,19.2
2017-09-20T10:55:29.396Z,19.4
2017-09-20T10:56:30.105Z,19.4
2017-09-20T10:57:30.954Z,19.7
2017-09-20T10:58:31.746Z,19.8
2017-09-20T10:59:32.751Z,19.6
2017-09-20T11:00:33.500Z,19.8
2017-09-20T11:01:34.220Z,19.9
2017-09-20T11:02:34.986Z,19.9
2017-09-20T11:03:35.756Z,19.6
2017-09-20T11:04:36.471Z,19.5
2017-09-20T11:05:37.210Z,19.2
2017-09-20T11:06:38.038Z,19.3
2017-09-20T11:07:38.843Z,19.4
2017-09-20T11:08:39.583Z,19.5
2017-09-20T11:09:40.389Z,19.3
2017-09-20T11:10:41.318Z,19.5
2017-09-20T11:11:42.093Z,19.5
2017-09-20T11:12:42.867Z,19.4
2017-09-20T11:13:43.708Z,19.6
2017-09-20T11:14:44.476Z,19.8
2017-09-20T11:15:45.352Z,19.9
2017-09-20T11:16:46.117Z,20.0
2017-09-20T11:17:46.926Z,20.1
2017-09-20T11:18:47.661Z,19.8
2017-09-20T11:19:48.690Z,19.8
2017-09-20T11:20:49.768Z,19.9
2017-09-20T11:21:50.547Z,19.9
2017-09-20T11:22:51.362Z,20.0
2017-09-20T11:23:52.273Z,20.1
2017-09-20T11:24:53.153Z,20.1
2017-09-20T11:25:54.593Z,19.9
2017-09-20T11:26:55.416Z,19.6
2017-09-20T11:27:56.159Z,19.4
2017-09-20T11:28:57.017Z,19.3
2017-09-20T11:29:57.973Z,19.3
2017-09-20T11:30:59.145Z,19.5
2017-09-20T11:31:59.912Z,19.6
2017-09-20T11:33:00.629Z,19.8
2017-09-20T11:34:01.375Z,19.8
2017-09-20T11:35:02.393Z,20.0
2017-09-20T11:36:03.067Z,20.1
2017-09-20T11:37:04.484Z,20.2
2017-09-20T11:38:05.333Z,20.3
2017-09-20T11:39:06.058Z,20.3
2017-09-20T11:40:06.817Z,20.2
2017-09-20T11:41:07.588Z,20.2
2017-09-20T11:42:08.599Z,20.3
2017-09-20T11:43:09.361Z,20.4
2017-09-20T11:44:10.123Z,20.4
2017-09-20T11:45:10.969Z,20.5
2017-09-20T11:46:12.292Z,20.6
2017-09-20T11:47:13.042Z,20.7
2017-09-20T11:48:13.976Z,20.8
2017-09-20T11:49:14.803Z,20.7
2017-09-20T11:50:15.576Z,20.6
2017-09-20T11:51:16.341Z,20.6
2017-09-20T11:52:17.176Z,20.6
2017-09-20T11:53:17.988Z,20.6
2017-09-20T11:54:18.702Z,20.7
2017-09-20T11:55:19.543Z,20.6
2017-09-20T11:56:20.277Z,20.7
2017-09-20T11:57:20.989Z,20.6
2017-09-20T11:58:22.211Z,20.6
2017-09-20T11:59:23.151Z,20.7
2017-09-20T12:00:23.988Z,20.8
2017-09-20T12:01:24.765Z,20.8
2017-09-20T12:02:25.549Z,20.6
2017-09-20T12:03:26.366Z,20.3
2017-09-20T12:04:27.075Z,20.4
2017-09-20T12:05:27.789Z,20.4
2017-09-20T12:06:28.614Z,20.4
2017-09-20T12:07:29.360Z,20.4
2017-09-20T12:08:30.061Z,20.4
2017-09-20T12:09:30.791Z,20.3
2017-09-20T12:10:31.535Z,20.4
2017-09-20T12:11:32.286Z,20.3
2017-09-20T12:12:33.093Z,20.5
2017-09-20T12:13:33.829Z,20.6
2017-09-20T12:14:34.790Z,20.7
2017-09-20T12:15:35.664Z,20.9
2017-09-20T12:16:36.514Z,20.9
2017-09-20T12:17:37.246Z,20.6
2017-09-20T12:18:38.013Z,20.7
2017-09-20T12:19:38.880Z,20.5
2017-09-20T12:20:39.724Z,20.3
2017-09-20T12:21:40.495Z,20.1
2017-09-20T12:22:41.234Z,20.2
2017-09-20T12:23:42.038Z,20.2
2017-09-20T12:24:42.893Z,20.1
2017-09-20T12:25:43.625Z,20.1
2017-09-20T12:26:44.453Z,20.1
2017-09-20T12:27:45.258Z,20.2
2017-09-20T12:28:46.004Z,20.3
2017-09-20T12:29:46.917Z,20.2
2017-09-20T12:30:47.771Z,20.2
2017-09-20T12:31:48.488Z,20.4
2017-09-20T12:32:49.314Z,20.2
2017-09-20T12:33:50.283Z,20.2
2017-09-20T12:34:51.023Z,20.0
2017-09-20T12:35:51.854Z,20.1
2017-09-20T12:36:52.668Z,20.1
2017-09-20T12:37:53.410Z,20.1
2017-09-20T12:38:54.257Z,20.1
2017-09-20T12:39:55.066Z,20.2
2017-09-20T12:40:55.801Z,20.3
2017-09-20T12:41:56.539Z,20.0
2017-09-20T12:42:57.517Z,20.0
2017-09-20T12:43:58.563Z,20.1
2017-09-20T12:44:59.271Z,19.8
2017-09-20T12:46:00.330Z,19.6
2017-09-20T12:47:01.279Z,19.4
2017-09-20T12:48:02.067Z,19.3
2017-09-20T12:49:02.889Z,19.2
2017-09-20T12:50:03.624Z,19.1
2017-09-20T12:51:04.366Z,19.1
2017-09-20T12:52:05.094Z,19.1
2017-09-20T12:53:05.823Z,19.1
2017-09-20T12:54:06.539Z,19.0
2017-09-20T12:55:07.253Z,18.8
2017-09-20T12:56:08.081Z,18.6
2017-09-20T12:57:08.802Z,18.3
2017-09-20T12:58:09.850Z,18.0
2017-09-20T12:59:10.570Z,17.9
2017-09-20T13:00:11.301Z,17.9
2017-09-20T13:01:12.303Z,17.6
2017-09-20T13:02:13.051Z,17.4
2017-09-20T13:03:13.782Z,17.2
2017-09-20T13:04:14.624Z,17.2
2017-09-20T13:05:15.387Z,17.1
2017-09-20T13:06:16.172Z,16.9
2017-09-20T13:07:16.953Z,16.7
2017-09-20T13:08:17.806Z,16.5
2017-09-20T13:09:18.935Z,16.4
2017-09-20T13:10:19.645Z,16.5
2017-09-20T13:11:21.116Z,16.5
2017-09-20T13:12:21.843Z,16.7
2017-09-20T13:13:22.654Z,16.7
2017-09-20T13:14:23.510Z,16.8
2017-09-20T13:15:24.268Z,16.8
2017-09-20T13:16:25.016Z,16.9
2017-09-20T13:17:25.890Z,16.8
2017-09-20T13:18:26.706Z,16.8
2017-09-20T13:19:27.478Z,16.8
2017-09-20T13:20:28.311Z,16.7
2017-09-20T13:21:29.016Z,16.7
2017-09-20T13:22:29.795Z,16.7
2017-09-20T13:23:30.568Z,16.6
2017-09-20T13:24:31.330Z,16.7
2017-09-20T13:25:32.202Z,16.7
2017-09-20T13:26:33.207Z,16.8
2017-09-20T13:27:33.912Z,16.8
2017-09-20T13:28:34.832Z,16.9
2017-09-20T13:29:35.609Z,16.9
2017-09-20T13:30:36.382Z,17.0
2017-09-20T13:31:37.111Z,17.0
2017-09-20T13:32:37.900Z,17.0
2017-09-20T13:33:38.916Z,17.0
2017-09-20T13:34:39.960Z,17.1